Terminal Aerodrome Forecast
Issued by NWS

Home | Current Version | Previous Version | Text Only | Print | Product List | Glossary On
Versions: 1 2 3 4 5 6 7 8 9 10 11 12 13 14 15 16 17 18 19 20 21 22
139
FTUS44 KLIX 211722
TAFHDC
TAF
KHDC 211722Z 2118/2218 14009G16KT P6SM SCT035 BKN050
     FM220100 12003KT P6SM SCT025 OVC050
     FM220600 12006KT P6SM VCSH OVC025
     FM221000 13006KT 5SM SHRA SCT003 OVC015
      TEMPO 2211/2215 VRB20KT 2SM TSRA BKN003CB
     FM221500 17008KT 5SM SHRA BKN015
     FM221700 20013KT 6SM SHRA BKN020=

USA.gov is the U.S. government's official web portal to all federal, state and local government web resources and services.